sensor_id;sensor_type;location;lat;lon;timestamp;P1;durP1;ratioP1;P2;durP2;ratioP2
16037;SDS011;8123;50.906;6.172;2023-07-29T00:01:30;8.30;;;5.73;;
16037;SDS011;8123;50.906;6.172;2023-07-29T00:03:56;17.00;;;5.17;;
16037;SDS011;8123;50.906;6.172;2023-07-29T00:06:23;8.00;;;5.80;;
16037;SDS011;8123;50.906;6.172;2023-07-29T00:08:49;10.83;;;6.33;;
16037;SDS011;8123;50.906;6.172;2023-07-29T00:11:14;5.47;;;4.97;;
16037;SDS011;8123;50.906;6.172;2023-07-29T00:13:40;7.60;;;5.60;;
16037;SDS011;8123;50.906;6.172;2023-07-29T00:16:06;14.83;;;5.80;;
16037;SDS011;8123;50.906;6.172;2023-07-29T00:18:31;7.60;;;5.90;;
16037;SDS011;8123;50.906;6.172;2023-07-29T00:20:57;9.93;;;5.13;;
16037;SDS011;8123;50.906;6.172;2023-07-29T00:23:23;11.00;;;5.80;;
16037;SDS011;8123;50.906;6.172;2023-07-29T00:25:49;11.70;;;4.87;;
16037;SDS011;8123;50.906;6.172;2023-07-29T00:28:14;9.63;;;5.53;;
16037;SDS011;8123;50.906;6.172;2023-07-29T00:30:40;7.43;;;5.90;;
16037;SDS011;8123;50.906;6.172;2023-07-29T00:33:06;9.93;;;5.77;;
16037;SDS011;8123;50.906;6.172;2023-07-29T00:35:31;17.27;;;5.07;;
16037;SDS011;8123;50.906;6.172;2023-07-29T00:37:57;10.80;;;5.20;;
16037;SDS011;8123;50.906;6.172;2023-07-29T00:40:23;13.20;;;5.40;;
16037;SDS011;8123;50.906;6.172;2023-07-29T00:42:48;6.80;;;4.90;;
16037;SDS011;8123;50.906;6.172;2023-07-29T00:45:15;14.60;;;4.50;;
16037;SDS011;8123;50.906;6.172;2023-07-29T00:47:42;11.73;;;4.00;;
16037;SDS011;8123;50.906;6.172;2023-07-29T00:50:09;9.90;;;3.53;;
16037;SDS011;8123;50.906;6.172;2023-07-29T00:52:36;8.63;;;3.03;;
16037;SDS011;8123;50.906;6.172;2023-07-29T00:55:01;7.70;;;3.43;;
16037;SDS011;8123;50.906;6.172;2023-07-29T00:57:29;29.43;;;3.77;;
16037;SDS011;8123;50.906;6.172;2023-07-29T00:59:55;7.03;;;3.57;;
16037;SDS011;8123;50.906;6.172;2023-07-29T01:02:21;7.23;;;3.10;;
16037;SDS011;8123;50.906;6.172;2023-07-29T01:04:56;24.03;;;4.37;;
16037;SDS011;8123;50.906;6.172;2023-07-29T01:18:55;7.10;;;3.63;;
16037;SDS011;8123;50.906;6.172;2023-07-29T01:21:22;8.57;;;3.17;;
16037;SDS011;8123;50.906;6.172;2023-07-29T01:23:52;10.23;;;3.53;;
16037;SDS011;8123;50.906;6.172;2023-07-29T01:26:18;8.43;;;3.07;;
16037;SDS011;8123;50.906;6.172;2023-07-29T01:28:44;11.87;;;3.40;;
16037;SDS011;8123;50.906;6.172;2023-07-29T01:31:13;11.70;;;3.60;;
16037;SDS011;8123;50.906;6.172;2023-07-29T01:33:47;5.57;;;2.83;;
16037;SDS011;8123;50.906;6.172;2023-07-29T01:36:21;3.83;;;3.23;;
16037;SDS011;8123;50.906;6.172;2023-07-29T01:38:51;5.33;;;3.27;;
16037;SDS011;8123;50.906;6.172;2023-07-29T01:41:18;13.43;;;4.10;;
16037;SDS011;8123;50.906;6.172;2023-07-29T01:43:45;11.43;;;3.60;;
16037;SDS011;8123;50.906;6.172;2023-07-29T01:46:12;6.10;;;3.13;;
16037;SDS011;8123;50.906;6.172;2023-07-29T01:48:39;3.83;;;2.87;;
16037;SDS011;8123;50.906;6.172;2023-07-29T01:51:05;5.53;;;2.90;;
16037;SDS011;8123;50.906;6.172;2023-07-29T01:53:31;6.60;;;3.20;;
16037;SDS011;8123;50.906;6.172;2023-07-29T01:55:57;8.27;;;3.67;;
16037;SDS011;8123;50.906;6.172;2023-07-29T01:58:23;6.80;;;3.73;;
16037;SDS011;8123;50.906;6.172;2023-07-29T02:00:49;6.53;;;3.83;;
16037;SDS011;8123;50.906;6.172;2023-07-29T02:03:15;12.87;;;4.10;;
16037;SDS011;8123;50.906;6.172;2023-07-29T02:05:41;5.00;;;3.90;;
16037;SDS011;8123;50.906;6.172;2023-07-29T02:08:09;10.33;;;3.80;;
16037;SDS011;8123;50.906;6.172;2023-07-29T02:10:35;4.40;;;4.10;;
16037;SDS011;8123;50.906;6.172;2023-07-29T02:13:01;10.73;;;5.00;;
16037;SDS011;8123;50.906;6.172;2023-07-29T02:15:27;6.23;;;5.30;;
16037;SDS011;8123;50.906;6.172;2023-07-29T02:17:53;7.17;;;6.30;;
16037;SDS011;8123;50.906;6.172;2023-07-29T02:20:19;6.10;;;5.67;;
16037;SDS011;8123;50.906;6.172;2023-07-29T02:22:45;5.73;;;5.20;;
16037;SDS011;8123;50.906;6.172;2023-07-29T02:25:10;11.10;;;5.93;;
16037;SDS011;8123;50.906;6.172;2023-07-29T02:27:36;14.70;;;6.50;;
16037;SDS011;8123;50.906;6.172;2023-07-29T02:30:02;9.97;;;6.30;;
16037;SDS011;8123;50.906;6.172;2023-07-29T02:32:28;7.73;;;6.47;;
16037;SDS011;8123;50.906;6.172;2023-07-29T02:34:54;14.00;;;6.63;;
16037;SDS011;8123;50.906;6.172;2023-07-29T02:37:19;6.33;;;5.50;;
16037;SDS011;8123;50.906;6.172;2023-07-29T02:39:45;9.80;;;6.03;;
16037;SDS011;8123;50.906;6.172;2023-07-29T02:42:11;6.67;;;5.50;;
16037;SDS011;8123;50.906;6.172;2023-07-29T02:44:37;14.43;;;6.27;;
16037;SDS011;8123;50.906;6.172;2023-07-29T02:47:03;12.00;;;6.40;;
16037;SDS011;8123;50.906;6.172;2023-07-29T02:49:28;7.60;;;6.50;;
16037;SDS011;8123;50.906;6.172;2023-07-29T02:51:54;9.03;;;6.23;;
16037;SDS011;8123;50.906;6.172;2023-07-29T02:54:20;11.07;;;7.00;;
16037;SDS011;8123;50.906;6.172;2023-07-29T02:56:46;11.43;;;7.03;;
16037;SDS011;8123;50.906;6.172;2023-07-29T02:59:11;7.43;;;6.53;;
16037;SDS011;8123;50.906;6.172;2023-07-29T03:01:37;8.70;;;6.97;;
16037;SDS011;8123;50.906;6.172;2023-07-29T03:04:02;12.23;;;6.93;;
16037;SDS011;8123;50.906;6.172;2023-07-29T03:06:28;8.97;;;7.37;;
16037;SDS011;8123;50.906;6.172;2023-07-29T03:08:54;16.60;;;8.10;;
16037;SDS011;8123;50.906;6.172;2023-07-29T03:11:19;8.73;;;7.83;;
16037;SDS011;8123;50.906;6.172;2023-07-29T03:13:45;14.37;;;8.73;;
16037;SDS011;8123;50.906;6.172;2023-07-29T03:16:14;16.97;;;10.00;;
16037;SDS011;8123;50.906;6.172;2023-07-29T03:18:41;13.27;;;9.87;;
16037;SDS011;8123;50.906;6.172;2023-07-29T03:21:08;15.23;;;9.80;;
16037;SDS011;8123;50.906;6.172;2023-07-29T03:23:34;11.53;;;9.50;;
16037;SDS011;8123;50.906;6.172;2023-07-29T03:26:01;11.80;;;10.43;;
16037;SDS011;8123;50.906;6.172;2023-07-29T03:28:29;25.40;;;10.67;;
16037;SDS011;8123;50.906;6.172;2023-07-29T03:30:57;20.00;;;11.03;;
16037;SDS011;8123;50.906;6.172;2023-07-29T03:33:23;12.50;;;10.67;;
16037;SDS011;8123;50.906;6.172;2023-07-29T03:35:50;12.27;;;10.70;;
16037;SDS011;8123;50.906;6.172;2023-07-29T03:38:15;14.67;;;10.73;;
16037;SDS011;8123;50.906;6.172;2023-07-29T03:40:41;20.33;;;10.40;;
16037;SDS011;8123;50.906;6.172;2023-07-29T03:43:07;11.10;;;9.57;;
16037;SDS011;8123;50.906;6.172;2023-07-29T03:45:34;8.13;;;6.97;;
16037;SDS011;8123;50.906;6.172;2023-07-29T03:48:01;12.23;;;7.20;;
16037;SDS011;8123;50.906;6.172;2023-07-29T03:50:27;12.00;;;7.50;;
16037;SDS011;8123;50.906;6.172;2023-07-29T03:52:54;11.83;;;8.60;;
16037;SDS011;8123;50.906;6.172;2023-07-29T03:55:20;8.83;;;8.07;;
16037;SDS011;8123;50.906;6.172;2023-07-29T03:57:45;11.13;;;9.13;;
16037;SDS011;8123;50.906;6.172;2023-07-29T04:00:11;7.83;;;7.13;;
16037;SDS011;8123;50.906;6.172;2023-07-29T04:02:37;7.17;;;6.47;;
16037;SDS011;8123;50.906;6.172;2023-07-29T04:05:03;8.70;;;6.43;;
16037;SDS011;8123;50.906;6.172;2023-07-29T04:07:30;13.10;;;5.53;;
16037;SDS011;8123;50.906;6.172;2023-07-29T04:09:56;15.40;;;5.03;;
16037;SDS011;8123;50.906;6.172;2023-07-29T04:12:22;5.13;;;4.73;;
16037;SDS011;8123;50.906;6.172;2023-07-29T04:14:48;6.43;;;4.70;;
16037;SDS011;8123;50.906;6.172;2023-07-29T04:17:14;7.77;;;4.83;;
16037;SDS011;8123;50.906;6.172;2023-07-29T04:19:39;4.20;;;3.33;;
16037;SDS011;8123;50.906;6.172;2023-07-29T04:22:05;10.13;;;3.80;;
16037;SDS011;8123;50.906;6.172;2023-07-29T04:24:31;5.83;;;3.70;;
16037;SDS011;8123;50.906;6.172;2023-07-29T04:26:56;4.40;;;3.40;;
16037;SDS011;8123;50.906;6.172;2023-07-29T04:29:22;7.90;;;3.67;;
16037;SDS011;8123;50.906;6.172;2023-07-29T04:31:48;4.67;;;4.03;;
16037;SDS011;8123;50.906;6.172;2023-07-29T04:34:14;6.57;;;3.90;;
16037;SDS011;8123;50.906;6.172;2023-07-29T04:36:40;5.40;;;3.43;;
16037;SDS011;8123;50.906;6.172;2023-07-29T04:39:06;4.90;;;3.93;;
16037;SDS011;8123;50.906;6.172;2023-07-29T04:41:31;11.43;;;4.00;;
16037;SDS011;8123;50.906;6.172;2023-07-29T04:43:57;9.27;;;4.27;;
16037;SDS011;8123;50.906;6.172;2023-07-29T04:46:22;8.87;;;4.00;;
16037;SDS011;8123;50.906;6.172;2023-07-29T04:48:48;5.77;;;3.97;;
16037;SDS011;8123;50.906;6.172;2023-07-29T04:51:14;7.93;;;4.00;;
16037;SDS011;8123;50.906;6.172;2023-07-29T04:53:39;7.53;;;3.93;;
16037;SDS011;8123;50.906;6.172;2023-07-29T04:56:05;4.57;;;3.80;;
16037;SDS011;8123;50.906;6.172;2023-07-29T04:58:30;5.83;;;3.83;;
16037;SDS011;8123;50.906;6.172;2023-07-29T05:00:59;4.20;;;3.67;;
16037;SDS011;8123;50.906;6.172;2023-07-29T05:03:25;5.47;;;3.37;;
16037;SDS011;8123;50.906;6.172;2023-07-29T05:05:51;5.43;;;3.73;;
16037;SDS011;8123;50.906;6.172;2023-07-29T05:08:18;8.13;;;4.20;;
16037;SDS011;8123;50.906;6.172;2023-07-29T05:10:44;5.27;;;3.33;;
16037;SDS011;8123;50.906;6.172;2023-07-29T05:13:13;4.73;;;4.30;;
16037;SDS011;8123;50.906;6.172;2023-07-29T05:15:38;8.97;;;3.87;;
16037;SDS011;8123;50.906;6.172;2023-07-29T05:18:04;4.47;;;3.97;;
16037;SDS011;8123;50.906;6.172;2023-07-29T05:20:30;6.13;;;4.03;;
16037;SDS011;8123;50.906;6.172;2023-07-29T05:22:55;5.60;;;3.77;;
16037;SDS011;8123;50.906;6.172;2023-07-29T05:25:21;17.20;;;9.90;;
16037;SDS011;8123;50.906;6.172;2023-07-29T05:27:46;10.73;;;4.10;;
16037;SDS011;8123;50.906;6.172;2023-07-29T05:30:12;7.10;;;4.10;;
16037;SDS011;8123;50.906;6.172;2023-07-29T05:32:38;5.07;;;4.10;;
16037;SDS011;8123;50.906;6.172;2023-07-29T05:35:03;6.07;;;4.20;;
16037;SDS011;8123;50.906;6.172;2023-07-29T05:37:29;6.20;;;3.40;;
16037;SDS011;8123;50.906;6.172;2023-07-29T05:39:55;10.63;;;3.90;;
16037;SDS011;8123;50.906;6.172;2023-07-29T05:42:20;10.27;;;4.70;;
16037;SDS011;8123;50.906;6.172;2023-07-29T05:44:46;4.70;;;4.23;;
16037;SDS011;8123;50.906;6.172;2023-07-29T05:47:11;10.00;;;4.70;;
16037;SDS011;8123;50.906;6.172;2023-07-29T05:49:37;6.70;;;4.43;;
16037;SDS011;8123;50.906;6.172;2023-07-29T05:52:03;9.23;;;4.37;;
16037;SDS011;8123;50.906;6.172;2023-07-29T05:54:29;14.03;;;4.90;;
16037;SDS011;8123;50.906;6.172;2023-07-29T05:56:54;7.60;;;4.60;;
16037;SDS011;8123;50.906;6.172;2023-07-29T05:59:20;4.80;;;4.10;;
16037;SDS011;8123;50.906;6.172;2023-07-29T06:01:45;7.97;;;4.70;;
16037;SDS011;8123;50.906;6.172;2023-07-29T06:04:11;12.87;;;5.10;;
16037;SDS011;8123;50.906;6.172;2023-07-29T06:06:37;8.83;;;5.37;;
16037;SDS011;8123;50.906;6.172;2023-07-29T06:09:02;7.90;;;4.47;;
16037;SDS011;8123;50.906;6.172;2023-07-29T06:11:28;7.13;;;4.70;;
16037;SDS011;8123;50.906;6.172;2023-07-29T06:13:53;8.13;;;4.80;;
16037;SDS011;8123;50.906;6.172;2023-07-29T06:16:19;6.50;;;5.20;;
16037;SDS011;8123;50.906;6.172;2023-07-29T06:18:45;9.30;;;4.80;;
16037;SDS011;8123;50.906;6.172;2023-07-29T06:21:10;9.00;;;5.33;;
16037;SDS011;8123;50.906;6.172;2023-07-29T06:23:41;7.73;;;5.30;;
16037;SDS011;8123;50.906;6.172;2023-07-29T06:26:08;14.37;;;4.87;;
16037;SDS011;8123;50.906;6.172;2023-07-29T06:28:34;8.37;;;4.40;;
16037;SDS011;8123;50.906;6.172;2023-07-29T06:31:00;4.97;;;4.47;;
16037;SDS011;8123;50.906;6.172;2023-07-29T06:33:26;5.70;;;4.70;;
16037;SDS011;8123;50.906;6.172;2023-07-29T06:35:52;6.20;;;3.83;;
16037;SDS011;8123;50.906;6.172;2023-07-29T06:38:17;6.70;;;4.43;;
16037;SDS011;8123;50.906;6.172;2023-07-29T06:40:46;6.80;;;3.37;;
16037;SDS011;8123;50.906;6.172;2023-07-29T06:43:15;7.10;;;3.27;;
16037;SDS011;8123;50.906;6.172;2023-07-29T06:45:41;4.03;;;2.60;;
16037;SDS011;8123;50.906;6.172;2023-07-29T06:48:06;7.80;;;3.20;;
16037;SDS011;8123;50.906;6.172;2023-07-29T06:50:32;3.17;;;2.70;;
16037;SDS011;8123;50.906;6.172;2023-07-29T06:52:58;2.60;;;2.40;;
16037;SDS011;8123;50.906;6.172;2023-07-29T06:55:23;26.23;;;2.97;;
16037;SDS011;8123;50.906;6.172;2023-07-29T06:57:49;2.57;;;2.47;;
16037;SDS011;8123;50.906;6.172;2023-07-29T07:00:14;10.70;;;2.90;;
16037;SDS011;8123;50.906;6.172;2023-07-29T07:02:40;3.73;;;3.37;;
16037;SDS011;8123;50.906;6.172;2023-07-29T07:05:06;4.93;;;3.10;;
16037;SDS011;8123;50.906;6.172;2023-07-29T07:07:32;5.87;;;2.87;;
16037;SDS011;8123;50.906;6.172;2023-07-29T07:09:58;6.73;;;2.70;;
16037;SDS011;8123;50.906;6.172;2023-07-29T07:12:23;3.33;;;3.13;;
16037;SDS011;8123;50.906;6.172;2023-07-29T07:14:49;4.70;;;2.90;;
16037;SDS011;8123;50.906;6.172;2023-07-29T07:17:15;3.87;;;3.40;;
16037;SDS011;8123;50.906;6.172;2023-07-29T07:19:40;5.30;;;3.70;;
16037;SDS011;8123;50.906;6.172;2023-07-29T07:22:06;4.63;;;3.80;;
16037;SDS011;8123;50.906;6.172;2023-07-29T07:24:31;3.70;;;2.80;;
16037;SDS011;8123;50.906;6.172;2023-07-29T07:26:57;5.07;;;3.70;;
16037;SDS011;8123;50.906;6.172;2023-07-29T07:29:23;9.87;;;3.23;;
16037;SDS011;8123;50.906;6.172;2023-07-29T07:31:52;3.47;;;3.13;;
16037;SDS011;8123;50.906;6.172;2023-07-29T07:34:19;6.37;;;3.97;;
16037;SDS011;8123;50.906;6.172;2023-07-29T07:36:45;3.17;;;2.97;;
16037;SDS011;8123;50.906;6.172;2023-07-29T07:39:11;3.67;;;3.27;;
16037;SDS011;8123;50.906;6.172;2023-07-29T07:41:37;3.73;;;3.37;;
16037;SDS011;8123;50.906;6.172;2023-07-29T07:44:03;3.50;;;2.80;;
16037;SDS011;8123;50.906;6.172;2023-07-29T07:46:28;3.40;;;2.77;;
16037;SDS011;8123;50.906;6.172;2023-07-29T07:48:54;2.73;;;2.53;;
16037;SDS011;8123;50.906;6.172;2023-07-29T07:51:20;7.43;;;2.90;;
16037;SDS011;8123;50.906;6.172;2023-07-29T07:53:45;6.83;;;3.20;;
16037;SDS011;8123;50.906;6.172;2023-07-29T07:56:11;4.10;;;2.70;;
16037;SDS011;8123;50.906;6.172;2023-07-29T07:58:37;5.13;;;2.90;;
16037;SDS011;8123;50.906;6.172;2023-07-29T08:01:04;2.17;;;1.97;;
16037;SDS011;8123;50.906;6.172;2023-07-29T08:03:31;7.13;;;2.73;;
16037;SDS011;8123;50.906;6.172;2023-07-29T08:05:57;3.23;;;2.93;;
16037;SDS011;8123;50.906;6.172;2023-07-29T08:08:23;2.53;;;2.27;;
16037;SDS011;8123;50.906;6.172;2023-07-29T08:10:50;2.50;;;2.30;;
16037;SDS011;8123;50.906;6.172;2023-07-29T08:13:15;2.30;;;2.20;;
16037;SDS011;8123;50.906;6.172;2023-07-29T08:15:41;5.27;;;2.70;;
16037;SDS011;8123;50.906;6.172;2023-07-29T08:18:10;2.60;;;2.40;;
16037;SDS011;8123;50.906;6.172;2023-07-29T08:20:36;3.13;;;2.40;;
16037;SDS011;8123;50.906;6.172;2023-07-29T08:23:01;2.43;;;2.33;;
16037;SDS011;8123;50.906;6.172;2023-07-29T08:25:28;5.20;;;2.43;;
16037;SDS011;8123;50.906;6.172;2023-07-29T08:27:54;2.10;;;2.00;;
16037;SDS011;8123;50.906;6.172;2023-07-29T08:30:19;2.37;;;2.17;;
16037;SDS011;8123;50.906;6.172;2023-07-29T08:32:45;1.50;;;1.40;;
16037;SDS011;8123;50.906;6.172;2023-07-29T08:35:11;2.20;;;2.00;;
16037;SDS011;8123;50.906;6.172;2023-07-29T08:37:36;2.73;;;2.50;;
16037;SDS011;8123;50.906;6.172;2023-07-29T08:40:02;3.90;;;2.10;;
16037;SDS011;8123;50.906;6.172;2023-07-29T08:42:28;2.00;;;1.90;;
16037;SDS011;8123;50.906;6.172;2023-07-29T08:44:56;2.63;;;2.40;;
16037;SDS011;8123;50.906;6.172;2023-07-29T08:47:30;2.40;;;2.20;;
16037;SDS011;8123;50.906;6.172;2023-07-29T08:49:55;3.30;;;2.30;;
16037;SDS011;8123;50.906;6.172;2023-07-29T08:52:22;3.03;;;1.80;;
16037;SDS011;8123;50.906;6.172;2023-07-29T08:54:49;2.10;;;1.80;;
16037;SDS011;8123;50.906;6.172;2023-07-29T08:57:15;1.73;;;1.63;;
16037;SDS011;8123;50.906;6.172;2023-07-29T08:59:42;2.50;;;2.30;;
16037;SDS011;8123;50.906;6.172;2023-07-29T09:02:08;5.53;;;1.60;;
16037;SDS011;8123;50.906;6.172;2023-07-29T09:04:33;2.30;;;2.10;;
16037;SDS011;8123;50.906;6.172;2023-07-29T09:06:59;4.63;;;1.97;;
16037;SDS011;8123;50.906;6.172;2023-07-29T09:09:25;4.90;;;2.10;;
16037;SDS011;8123;50.906;6.172;2023-07-29T09:11:51;2.00;;;1.90;;
16037;SDS011;8123;50.906;6.172;2023-07-29T09:14:17;3.53;;;2.23;;
16037;SDS011;8123;50.906;6.172;2023-07-29T09:16:43;2.20;;;1.93;;
16037;SDS011;8123;50.906;6.172;2023-07-29T09:19:09;2.17;;;2.03;;
16037;SDS011;8123;50.906;6.172;2023-07-29T09:21:34;2.10;;;2.00;;
16037;SDS011;8123;50.906;6.172;2023-07-29T09:24:04;6.30;;;2.70;;
16037;SDS011;8123;50.906;6.172;2023-07-29T09:26:30;7.23;;;2.37;;
16037;SDS011;8123;50.906;6.172;2023-07-29T09:28:56;2.60;;;1.73;;
16037;SDS011;8123;50.906;6.172;2023-07-29T09:31:24;4.27;;;2.00;;
16037;SDS011;8123;50.906;6.172;2023-07-29T09:33:57;2.40;;;2.20;;
16037;SDS011;8123;50.906;6.172;2023-07-29T09:36:27;4.50;;;2.17;;
16037;SDS011;8123;50.906;6.172;2023-07-29T09:38:56;2.80;;;2.60;;
16037;SDS011;8123;50.906;6.172;2023-07-29T09:41:22;2.40;;;2.20;;
16037;SDS011;8123;50.906;6.172;2023-07-29T09:43:51;1.90;;;1.80;;
16037;SDS011;8123;50.906;6.172;2023-07-29T09:46:22;3.30;;;1.93;;
16037;SDS011;8123;50.906;6.172;2023-07-29T09:48:49;2.33;;;2.13;;
16037;SDS011;8123;50.906;6.172;2023-07-29T09:51:19;5.60;;;1.63;;
16037;SDS011;8123;50.906;6.172;2023-07-29T09:53:46;2.67;;;2.47;;
16037;SDS011;8123;50.906;6.172;2023-07-29T09:56:13;6.30;;;2.30;;
16037;SDS011;8123;50.906;6.172;2023-07-29T09:58:39;2.60;;;2.40;;
16037;SDS011;8123;50.906;6.172;2023-07-29T10:01:07;2.60;;;2.40;;
16037;SDS011;8123;50.906;6.172;2023-07-29T10:03:34;2.50;;;2.30;;
16037;SDS011;8123;50.906;6.172;2023-07-29T10:06:02;2.10;;;2.00;;
16037;SDS011;8123;50.906;6.172;2023-07-29T10:08:29;2.73;;;2.03;;
16037;SDS011;8123;50.906;6.172;2023-07-29T10:10:58;2.10;;;1.97;;
16037;SDS011;8123;50.906;6.172;2023-07-29T10:13:24;1.70;;;1.60;;
16037;SDS011;8123;50.906;6.172;2023-07-29T10:15:51;4.17;;;2.30;;
16037;SDS011;8123;50.906;6.172;2023-07-29T10:18:19;6.50;;;3.93;;
16037;SDS011;8123;50.906;6.172;2023-07-29T10:20:46;2.87;;;2.67;;
16037;SDS011;8123;50.906;6.172;2023-07-29T10:23:15;2.60;;;2.40;;
16037;SDS011;8123;50.906;6.172;2023-07-29T10:25:45;2.70;;;2.50;;
16037;SDS011;8123;50.906;6.172;2023-07-29T10:28:14;2.40;;;2.20;;
16037;SDS011;8123;50.906;6.172;2023-07-29T10:30:43;1.80;;;1.70;;
16037;SDS011;8123;50.906;6.172;2023-07-29T10:33:09;2.33;;;2.23;;
16037;SDS011;8123;50.906;6.172;2023-07-29T10:35:35;2.17;;;2.07;;
16037;SDS011;8123;50.906;6.172;2023-07-29T10:38:02;3.00;;;2.30;;
16037;SDS011;8123;50.906;6.172;2023-07-29T10:43:25;2.10;;;2.00;;
16037;SDS011;8123;50.906;6.172;2023-07-29T10:45:55;3.40;;;2.63;;
16037;SDS011;8123;50.906;6.172;2023-07-29T10:51:43;1.70;;;1.60;;
16037;SDS011;8123;50.906;6.172;2023-07-29T10:53:55;5.17;;;2.30;;
16037;SDS011;8123;50.906;6.172;2023-07-29T10:56:26;1.70;;;1.60;;
16037;SDS011;8123;50.906;6.172;2023-07-29T10:58:54;3.17;;;2.53;;
16037;SDS011;8123;50.906;6.172;2023-07-29T11:01:29;2.10;;;1.90;;
16037;SDS011;8123;50.906;6.172;2023-07-29T11:04:01;1.97;;;1.87;;
16037;SDS011;8123;50.906;6.172;2023-07-29T11:17:39;7.33;;;2.20;;
16037;SDS011;8123;50.906;6.172;2023-07-29T11:20:07;2.97;;;2.77;;
16037;SDS011;8123;50.906;6.172;2023-07-29T11:22:33;6.53;;;2.20;;
16037;SDS011;8123;50.906;6.172;2023-07-29T11:24:59;6.00;;;2.37;;
16037;SDS011;8123;50.906;6.172;2023-07-29T11:27:25;2.87;;;2.40;;
16037;SDS011;8123;50.906;6.172;2023-07-29T11:29:50;1.90;;;1.80;;
16037;SDS011;8123;50.906;6.172;2023-07-29T11:32:33;2.70;;;2.50;;
16037;SDS011;8123;50.906;6.172;2023-07-29T11:35:10;2.77;;;2.57;;
16037;SDS011;8123;50.906;6.172;2023-07-29T11:37:38;2.40;;;2.30;;
16037;SDS011;8123;50.906;6.172;2023-07-29T11:40:04;3.20;;;2.60;;
16037;SDS011;8123;50.906;6.172;2023-07-29T11:42:32;1.87;;;1.77;;
16037;SDS011;8123;50.906;6.172;2023-07-29T11:44:59;2.20;;;2.00;;
16037;SDS011;8123;50.906;6.172;2023-07-29T11:47:25;2.53;;;2.30;;
16037;SDS011;8123;50.906;6.172;2023-07-29T11:49:51;5.53;;;2.00;;
16037;SDS011;8123;50.906;6.172;2023-07-29T11:52:17;2.13;;;2.03;;
16037;SDS011;8123;50.906;6.172;2023-07-29T11:54:44;2.00;;;1.90;;
16037;SDS011;8123;50.906;6.172;2023-07-29T11:57:12;2.50;;;2.30;;
16037;SDS011;8123;50.906;6.172;2023-07-29T11:59:40;2.47;;;2.27;;
16037;SDS011;8123;50.906;6.172;2023-07-29T12:02:11;2.20;;;2.10;;
16037;SDS011;8123;50.906;6.172;2023-07-29T12:04:39;4.73;;;2.63;;
16037;SDS011;8123;50.906;6.172;2023-07-29T12:07:06;2.67;;;2.47;;
16037;SDS011;8123;50.906;6.172;2023-07-29T12:09:32;2.30;;;2.10;;
16037;SDS011;8123;50.906;6.172;2023-07-29T12:11:59;2.50;;;2.30;;
16037;SDS011;8123;50.906;6.172;2023-07-29T12:14:26;2.30;;;2.17;;
16037;SDS011;8123;50.906;6.172;2023-07-29T12:16:53;4.30;;;2.80;;
16037;SDS011;8123;50.906;6.172;2023-07-29T12:19:18;8.03;;;2.63;;
16037;SDS011;8123;50.906;6.172;2023-07-29T12:21:46;3.20;;;2.20;;
16037;SDS011;8123;50.906;6.172;2023-07-29T12:24:13;2.83;;;2.63;;
16037;SDS011;8123;50.906;6.172;2023-07-29T12:26:39;2.40;;;2.30;;
16037;SDS011;8123;50.906;6.172;2023-07-29T12:29:16;3.43;;;2.07;;
16037;SDS011;8123;50.906;6.172;2023-07-29T12:31:44;2.47;;;2.27;;
16037;SDS011;8123;50.906;6.172;2023-07-29T12:34:16;2.80;;;2.60;;
16037;SDS011;8123;50.906;6.172;2023-07-29T12:36:49;4.23;;;3.87;;
16037;SDS011;8123;50.906;6.172;2023-07-29T12:39:20;4.80;;;2.60;;
16037;SDS011;8123;50.906;6.172;2023-07-29T12:41:46;2.63;;;2.40;;
16037;SDS011;8123;50.906;6.172;2023-07-29T12:44:12;2.40;;;2.20;;
16037;SDS011;8123;50.906;6.172;2023-07-29T12:46:38;4.47;;;2.10;;
16037;SDS011;8123;50.906;6.172;2023-07-29T12:49:03;2.47;;;2.37;;
16037;SDS011;8123;50.906;6.172;2023-07-29T12:51:29;2.77;;;2.57;;
16037;SDS011;8123;50.906;6.172;2023-07-29T12:53:55;2.40;;;2.20;;
16037;SDS011;8123;50.906;6.172;2023-07-29T12:56:21;3.83;;;3.43;;
16037;SDS011;8123;50.906;6.172;2023-07-29T12:58:46;10.77;;;2.97;;
16037;SDS011;8123;50.906;6.172;2023-07-29T13:01:12;3.47;;;2.73;;
16037;SDS011;8123;50.906;6.172;2023-07-29T13:03:43;4.53;;;2.83;;
16037;SDS011;8123;50.906;6.172;2023-07-29T13:06:15;5.00;;;3.10;;
16037;SDS011;8123;50.906;6.172;2023-07-29T13:08:41;3.50;;;3.20;;
16037;SDS011;8123;50.906;6.172;2023-07-29T13:11:07;4.93;;;3.13;;
16037;SDS011;8123;50.906;6.172;2023-07-29T13:13:34;3.17;;;2.90;;
16037;SDS011;8123;50.906;6.172;2023-07-29T13:16:00;3.63;;;3.30;;
16037;SDS011;8123;50.906;6.172;2023-07-29T13:18:26;2.90;;;2.70;;
16037;SDS011;8123;50.906;6.172;2023-07-29T13:20:52;4.30;;;3.87;;
16037;SDS011;8123;50.906;6.172;2023-07-29T13:23:18;7.43;;;3.60;;
16037;SDS011;8123;50.906;6.172;2023-07-29T13:25:43;3.70;;;3.30;;
16037;SDS011;8123;50.906;6.172;2023-07-29T13:28:09;3.97;;;3.67;;
16037;SDS011;8123;50.906;6.172;2023-07-29T13:30:35;3.20;;;2.90;;
16037;SDS011;8123;50.906;6.172;2023-07-29T13:33:01;4.83;;;2.80;;
16037;SDS011;8123;50.906;6.172;2023-07-29T13:35:27;4.20;;;3.77;;
16037;SDS011;8123;50.906;6.172;2023-07-29T13:37:53;3.03;;;2.83;;
16037;SDS011;8123;50.906;6.172;2023-07-29T13:40:18;2.87;;;2.67;;
16037;SDS011;8123;50.906;6.172;2023-07-29T13:42:44;3.97;;;3.57;;
16037;SDS011;8123;50.906;6.172;2023-07-29T13:45:10;4.10;;;2.67;;
16037;SDS011;8123;50.906;6.172;2023-07-29T13:47:35;4.93;;;4.33;;
16037;SDS011;8123;50.906;6.172;2023-07-29T13:50:01;3.27;;;2.97;;
16037;SDS011;8123;50.906;6.172;2023-07-29T13:52:27;2.70;;;2.50;;
16037;SDS011;8123;50.906;6.172;2023-07-29T13:54:53;2.77;;;2.53;;
16037;SDS011;8123;50.906;6.172;2023-07-29T13:57:18;2.67;;;2.40;;
16037;SDS011;8123;50.906;6.172;2023-07-29T13:59:44;3.80;;;3.20;;
16037;SDS011;8123;50.906;6.172;2023-07-29T14:02:10;5.03;;;4.50;;
16037;SDS011;8123;50.906;6.172;2023-07-29T14:04:35;5.93;;;3.30;;
16037;SDS011;8123;50.906;6.172;2023-07-29T14:07:01;3.10;;;2.80;;
16037;SDS011;8123;50.906;6.172;2023-07-29T14:09:27;3.67;;;2.60;;
16037;SDS011;8123;50.906;6.172;2023-07-29T14:11:55;8.60;;;3.90;;
16037;SDS011;8123;50.906;6.172;2023-07-29T14:14:23;3.97;;;2.87;;
16037;SDS011;8123;50.906;6.172;2023-07-29T14:16:49;3.83;;;3.50;;
16037;SDS011;8123;50.906;6.172;2023-07-29T14:19:15;13.57;;;2.73;;
16037;SDS011;8123;50.906;6.172;2023-07-29T14:21:40;4.83;;;3.00;;
16037;SDS011;8123;50.906;6.172;2023-07-29T14:24:07;2.20;;;2.10;;
16037;SDS011;8123;50.906;6.172;2023-07-29T14:26:33;2.60;;;2.50;;
16037;SDS011;8123;50.906;6.172;2023-07-29T14:28:58;2.50;;;2.33;;
16037;SDS011;8123;50.906;6.172;2023-07-29T14:31:24;5.40;;;3.50;;
16037;SDS011;8123;50.906;6.172;2023-07-29T14:33:50;4.97;;;3.03;;
16037;SDS011;8123;50.906;6.172;2023-07-29T14:36:15;11.60;;;3.50;;
16037;SDS011;8123;50.906;6.172;2023-07-29T14:38:41;3.80;;;3.23;;
16037;SDS011;8123;50.906;6.172;2023-07-29T14:41:07;3.63;;;3.33;;
16037;SDS011;8123;50.906;6.172;2023-07-29T14:43:33;2.57;;;2.47;;
16037;SDS011;8123;50.906;6.172;2023-07-29T14:45:59;3.80;;;2.87;;
16037;SDS011;8123;50.906;6.172;2023-07-29T14:48:25;3.47;;;2.87;;
16037;SDS011;8123;50.906;6.172;2023-07-29T14:50:51;3.10;;;2.40;;
16037;SDS011;8123;50.906;6.172;2023-07-29T14:53:17;2.17;;;2.07;;
16037;SDS011;8123;50.906;6.172;2023-07-29T14:55:42;3.20;;;2.93;;
16037;SDS011;8123;50.906;6.172;2023-07-29T14:58:08;3.00;;;2.50;;
16037;SDS011;8123;50.906;6.172;2023-07-29T15:00:34;3.03;;;2.80;;
16037;SDS011;8123;50.906;6.172;2023-07-29T15:02:59;2.70;;;2.50;;
16037;SDS011;8123;50.906;6.172;2023-07-29T15:05:25;5.20;;;3.30;;
16037;SDS011;8123;50.906;6.172;2023-07-29T15:07:51;4.73;;;4.23;;
16037;SDS011;8123;50.906;6.172;2023-07-29T15:10:16;6.80;;;5.10;;
16037;SDS011;8123;50.906;6.172;2023-07-29T15:12:43;3.67;;;3.37;;
16037;SDS011;8123;50.906;6.172;2023-07-29T15:15:10;4.43;;;3.57;;
16037;SDS011;8123;50.906;6.172;2023-07-29T15:17:36;3.70;;;3.10;;
16037;SDS011;8123;50.906;6.172;2023-07-29T15:20:02;4.60;;;3.03;;
16037;SDS011;8123;50.906;6.172;2023-07-29T15:22:29;4.00;;;3.17;;